00ZT1 LFBO-LGAV
Flight info
| Callsign | 00ZT1 |
|---|---|
| Flight time | N/A |
| Altitude | 41000 |
| Route | AMOLO DCT DEGOL DCT FJR DCT ROVOT DCT PADKO DCT STP DCT MERLU DCT RAPUR DCT RATAP DCT BTA DCT DOKAR DCT SUNEV DCT AMSOR DCT NOSTO UN7 NEMES |
| Aircraft | C750/M-SBDE3FGHRWXY/S |
Departure
| Time | 2026-04-27 18:48 |
|---|---|
| Airport | Toulouse-Blagnac Airport (LFBO) |
Arrival
| Time | N/A |
|---|---|
| Airport | Athens Eleftherios Venizelos International Airport (LGAV) |
| Time | Latitude | Longitude | Altitude | Speed | Heading |
|---|---|---|---|---|---|
| 2026-04-27 18:45 | 43.61585 | 1.38003 | 502 ft | 0 kts | 322° |
| 2026-04-27 18:47 | 43.61592 | 1.37996 | 502 ft | 3 kts | 322° |
| 2026-04-27 18:47 | 43.61665 | 1.37920 | 502 ft | 24 kts | 323° |
| 2026-04-27 18:47 | 43.61872 | 1.37698 | 501 ft | 52 kts | 324° |
| 2026-04-27 18:47 | 43.62239 | 1.37322 | 496 ft | 78 kts | 322° |
| 2026-04-27 18:48 | 43.62734 | 1.36789 | 493 ft | 107 kts | 321° |
| 2026-04-27 18:48 | 43.63433 | 1.36069 | 691 ft | 130 kts | 324° |
| 2026-04-27 18:48 | 43.64234 | 1.35319 | 1055 ft | 146 kts | 330° |
| 2026-04-27 18:48 | 43.65151 | 1.34738 | 1654 ft | 159 kts | 340° |
| 2026-04-27 18:49 | 43.66251 | 1.34186 | 2330 ft | 183 kts | 326° |
| 2026-04-27 18:49 | 43.67077 | 1.32756 | 3045 ft | 205 kts | 303° |
| 2026-04-27 18:49 | 43.68061 | 1.31206 | 3709 ft | 229 kts | 319° |
| 2026-04-27 18:49 | 43.69446 | 1.29945 | 4327 ft | 253 kts | 344° |
| 2026-04-27 18:50 | 43.71214 | 1.29997 | 4982 ft | 272 kts | 20° |
| 2026-04-27 18:50 | 43.72719 | 1.31474 | 5602 ft | 287 kts | 52° |
| 2026-04-27 18:50 | 43.73463 | 1.33955 | 6218 ft | 288 kts | 83° |
| 2026-04-27 18:50 | 43.73122 | 1.36685 | 6784 ft | 293 kts | 111° |
| 2026-04-27 18:51 | 43.72538 | 1.39374 | 7345 ft | 298 kts | 96° |
| 2026-04-27 18:51 | 43.72375 | 1.42225 | 7985 ft | 303 kts | 90° |
| 2026-04-27 18:51 | 43.72848 | 1.45041 | 8558 ft | 307 kts | 62° |
| 2026-04-27 18:51 | 43.73811 | 1.47661 | 9199 ft | 310 kts | 65° |
| 2026-04-27 18:52 | 43.74719 | 1.50367 | 9797 ft | 314 kts | 63° |
| 2026-04-27 18:52 | 43.75661 | 1.53131 | 10401 ft | 318 kts | 64° |
| 2026-04-27 18:52 | 43.76599 | 1.55894 | 10997 ft | 321 kts | 64° |
| 2026-04-27 18:53 | 43.78489 | 1.61476 | 12178 ft | 325 kts | 64° |
| 2026-04-27 18:53 | 43.79449 | 1.64308 | 12765 ft | 327 kts | 64° |
| 2026-04-27 18:53 | 43.80404 | 1.67136 | 13342 ft | 328 kts | 64° |
| 2026-04-27 18:53 | 43.81371 | 1.70002 | 13929 ft | 329 kts | 64° |
| 2026-04-27 18:54 | 43.82328 | 1.72843 | 14513 ft | 329 kts | 64° |
| 2026-04-27 18:54 | 43.83290 | 1.75697 | 15098 ft | 329 kts | 64° |
| 2026-04-27 18:54 | 43.84248 | 1.78541 | 15682 ft | 328 kts | 64° |
| 2026-04-27 18:54 | 43.85206 | 1.81391 | 16266 ft | 327 kts | 64° |
| 2026-04-27 18:55 | 43.86161 | 1.84231 | 16850 ft | 325 kts | 64° |
| 2026-04-27 18:55 | 43.87104 | 1.87049 | 17433 ft | 324 kts | 64° |
| 2026-04-27 18:55 | 43.88053 | 1.89879 | 18022 ft | 321 kts | 64° |
| 2026-04-27 18:55 | 43.88976 | 1.92637 | 18606 ft | 319 kts | 64° |
| 2026-04-27 18:56 | 43.89906 | 1.95417 | 19198 ft | 315 kts | 64° |
| 2026-04-27 18:56 | 43.90809 | 1.98116 | 19784 ft | 312 kts | 64° |
| 2026-04-27 18:56 | 43.91707 | 2.00892 | 20109 ft | 318 kts | 70° |
| 2026-04-27 18:56 | 43.91932 | 2.03981 | 20082 ft | 334 kts | 100° |
| 2026-04-27 18:57 | 43.91371 | 2.07136 | 20111 ft | 348 kts | 105° |
| 2026-04-27 18:57 | 43.90787 | 2.10484 | 20082 ft | 364 kts | 104° |
| 2026-04-27 18:57 | 43.90200 | 2.13957 | 20075 ft | 378 kts | 103° |
| 2026-04-27 18:57 | 43.89594 | 2.17577 | 20073 ft | 391 kts | 103° |
| 2026-04-27 18:58 | 43.88976 | 2.21279 | 20070 ft | 403 kts | 103° |
| 2026-04-27 18:58 | 43.88554 | 2.23796 | 20070 ft | 411 kts | 103° |
| 2026-04-27 18:58 | 43.87680 | 2.29007 | 20074 ft | 424 kts | 103° |
| 2026-04-27 18:58 | 43.86998 | 2.33053 | 20079 ft | 433 kts | 103° |
| 2026-04-27 18:59 | 43.86309 | 2.37145 | 20086 ft | 441 kts | 103° |
| 2026-04-27 18:59 | 43.85613 | 2.41266 | 20103 ft | 449 kts | 103° |
| 2026-04-27 18:59 | 43.84891 | 2.45533 | 20135 ft | 455 kts | 103° |
| 2026-04-27 18:59 | 43.84163 | 2.49822 | 20161 ft | 461 kts | 103° |
| 2026-04-27 19:00 | 43.83428 | 2.54145 | 20189 ft | 466 kts | 103° |
| 2026-04-27 19:00 | 43.82698 | 2.58528 | 20207 ft | 471 kts | 101° |
| 2026-04-27 19:00 | 43.82139 | 2.63009 | 20090 ft | 478 kts | 104° |
| 2026-04-27 19:00 | 43.81146 | 2.67358 | 20167 ft | 479 kts | 106° |
| 2026-04-27 19:01 | 43.80398 | 2.71854 | 20158 ft | 483 kts | 104° |
| 2026-04-27 19:01 | 43.79582 | 2.76370 | 20165 ft | 486 kts | 104° |
| 2026-04-27 19:01 | 43.78805 | 2.80929 | 20207 ft | 488 kts | 104° |
| 2026-04-27 19:01 | 43.78012 | 2.85498 | 20238 ft | 490 kts | 103° |
| 2026-04-27 19:02 | 43.77446 | 2.90139 | 20104 ft | 494 kts | 103° |
| 2026-04-27 19:02 | 43.76387 | 2.94603 | 20175 ft | 492 kts | 108° |
| 2026-04-27 19:02 | 43.75609 | 2.99198 | 20115 ft | 495 kts | 103° |
| 2026-04-27 19:02 | 43.74752 | 3.03857 | 20111 ft | 496 kts | 104° |
| 2026-04-27 19:03 | 43.73974 | 3.08487 | 20104 ft | 496 kts | 104° |
| 2026-04-27 19:03 | 43.73136 | 3.13103 | 20099 ft | 497 kts | 104° |
| 2026-04-27 19:03 | 43.72337 | 3.17683 | 20094 ft | 498 kts | 104° |
| 2026-04-27 19:03 | 43.71773 | 3.20797 | 20093 ft | 498 kts | 104° |
| 2026-04-27 19:04 | 43.70675 | 3.26983 | 20086 ft | 499 kts | 104° |
| 2026-04-27 19:04 | 43.69842 | 3.31639 | 20085 ft | 499 kts | 104° |
| 2026-04-27 19:04 | 43.69008 | 3.36283 | 20083 ft | 499 kts | 104° |
| 2026-04-27 19:04 | 43.68178 | 3.40905 | 20081 ft | 500 kts | 104° |
| 2026-04-27 19:05 | 43.67340 | 3.45548 | 20087 ft | 500 kts | 104° |
| 2026-04-27 19:05 | 43.66503 | 3.50182 | 20076 ft | 500 kts | 104° |
| 2026-04-27 19:05 | 43.65666 | 3.54800 | 20077 ft | 500 kts | 104° |
| 2026-04-27 19:05 | 43.64820 | 3.59459 | 20072 ft | 500 kts | 104° |
| 2026-04-27 19:06 | 43.63971 | 3.64116 | 20087 ft | 500 kts | 104° |
| 2026-04-27 19:06 | 43.63128 | 3.68736 | 20072 ft | 500 kts | 104° |
| 2026-04-27 19:06 | 43.62275 | 3.73392 | 20086 ft | 500 kts | 104° |
| 2026-04-27 19:06 | 43.61423 | 3.78036 | 20091 ft | 500 kts | 104° |
| 2026-04-27 19:07 | 43.60578 | 3.82630 | 20080 ft | 500 kts | 104° |
| 2026-04-27 19:07 | 43.59712 | 3.87320 | 20081 ft | 500 kts | 104° |
| 2026-04-27 19:07 | 43.58862 | 3.91924 | 20098 ft | 500 kts | 104° |
| 2026-04-27 19:07 | 43.58004 | 3.96545 | 20104 ft | 499 kts | 105° |
| 2026-04-27 19:08 | 43.56943 | 4.01117 | 20085 ft | 499 kts | 110° |
| 2026-04-27 19:08 | 43.55823 | 4.05605 | 20102 ft | 499 kts | 108° |
| 2026-04-27 19:08 | 43.54687 | 4.10117 | 20120 ft | 499 kts | 110° |
| 2026-04-27 19:08 | 43.53569 | 4.14636 | 20130 ft | 499 kts | 109° |
| 2026-04-27 19:09 | 43.52434 | 4.19126 | 20142 ft | 499 kts | 109° |
| 2026-04-27 19:09 | 43.51324 | 4.23599 | 20163 ft | 498 kts | 109° |
| 2026-04-27 19:09 | 43.50190 | 4.28092 | 20192 ft | 498 kts | 109° |
| 2026-04-27 19:09 | 43.49070 | 4.32565 | 20253 ft | 497 kts | 109° |
| 2026-04-27 19:10 | 43.47935 | 4.37061 | 20338 ft | 496 kts | 109° |
| 2026-04-27 19:10 | 43.46802 | 4.41553 | 20466 ft | 494 kts | 109° |
| 2026-04-27 19:10 | 43.45687 | 4.45966 | 20633 ft | 492 kts | 109° |
| 2026-04-27 19:10 | 43.44931 | 4.48950 | 20733 ft | 491 kts | 109° |
| 2026-04-27 19:11 | 43.43434 | 4.54852 | 20813 ft | 492 kts | 109° |
| 2026-04-27 19:11 | 43.42307 | 4.59277 | 20853 ft | 493 kts | 109° |
| 2026-04-27 19:11 | 43.41191 | 4.63665 | 20947 ft | 493 kts | 109° |
| 2026-04-27 19:11 | 43.40045 | 4.68147 | 21033 ft | 493 kts | 109° |
| 2026-04-27 19:12 | 43.38909 | 4.72593 | 21046 ft | 495 kts | 109° |
| 2026-04-27 19:12 | 43.37781 | 4.76994 | 21151 ft | 494 kts | 109° |
| 2026-04-27 19:12 | 43.36628 | 4.81485 | 21182 ft | 495 kts | 109° |
| 2026-04-27 19:12 | 43.35493 | 4.85897 | 21206 ft | 496 kts | 109° |
| 2026-04-27 19:13 | 43.34246 | 4.90739 | 21306 ft | 495 kts | 109° |
| 2026-04-27 19:13 | 43.33183 | 4.95282 | 21266 ft | 497 kts | 104° |
| 2026-04-27 19:13 | 43.32073 | 4.99753 | 21033 ft | 503 kts | 114° |
| 2026-04-27 19:14 | 43.29598 | 5.08702 | 20893 ft | 504 kts | 110° |
| 2026-04-27 19:14 | 43.28411 | 5.13218 | 20882 ft | 504 kts | 108° |
| 2026-04-27 19:14 | 43.27234 | 5.17732 | 20858 ft | 504 kts | 110° |
| 2026-04-27 19:14 | 43.26073 | 5.22211 | 20907 ft | 502 kts | 108° |
| 2026-04-27 19:15 | 43.24898 | 5.26658 | 20987 ft | 500 kts | 109° |
| 2026-04-27 19:15 | 43.23732 | 5.31163 | 21117 ft | 498 kts | 108° |
| 2026-04-27 19:15 | 43.23015 | 5.35739 | 20994 ft | 499 kts | 92° |
| 2026-04-27 19:15 | 43.23142 | 5.40464 | 20919 ft | 499 kts | 87° |
| 2026-04-27 19:16 | 43.23060 | 5.45210 | 20896 ft | 490 kts | 89° |
| 2026-04-27 19:16 | 43.23093 | 5.48245 | 20934 ft | 483 kts | 88° |
| 2026-04-27 19:16 | 43.23047 | 5.54322 | 21180 ft | 469 kts | 88° |
| 2026-04-27 19:16 | 43.23034 | 5.58722 | 21482 ft | 457 kts | 89° |
| 2026-04-27 19:17 | 43.23005 | 5.62996 | 21849 ft | 445 kts | 89° |
| 2026-04-27 19:17 | 43.22974 | 5.67152 | 22261 ft | 433 kts | 89° |
| 2026-04-27 19:17 | 43.22946 | 5.71204 | 22700 ft | 421 kts | 89° |
| 2026-04-27 19:17 | 43.22917 | 5.75162 | 23127 ft | 410 kts | 89° |
| 2026-04-27 19:18 | 43.22887 | 5.78992 | 23497 ft | 402 kts | 89° |
| 2026-04-27 19:18 | 43.22857 | 5.82816 | 23775 ft | 397 kts | 89° |
| 2026-04-27 19:18 | 43.22823 | 5.86565 | 23925 ft | 395 kts | 89° |
| 2026-04-27 19:18 | 43.22789 | 5.90318 | 23950 ft | 397 kts | 89° |
| 2026-04-27 19:19 | 43.22757 | 5.94100 | 23867 ft | 401 kts | 89° |
| 2026-04-27 19:19 | 43.22719 | 5.97953 | 23712 ft | 407 kts | 89° |
| 2026-04-27 19:19 | 43.22681 | 6.01826 | 23530 ft | 413 kts | 89° |
| 2026-04-27 19:19 | 43.22641 | 6.05809 | 23365 ft | 418 kts | 89° |
| 2026-04-27 19:20 | 43.22599 | 6.09769 | 23255 ft | 421 kts | 89° |
| 2026-04-27 19:20 | 43.22555 | 6.13771 | 23219 ft | 422 kts | 89° |
| 2026-04-27 19:20 | 43.22509 | 6.17809 | 23271 ft | 421 kts | 89° |
| 2026-04-27 19:20 | 43.22464 | 6.21767 | 23402 ft | 417 kts | 89° |
| 2026-04-27 19:21 | 43.22416 | 6.25729 | 23609 ft | 412 kts | 89° |
| 2026-04-27 19:21 | 43.22369 | 6.29585 | 23865 ft | 407 kts | 89° |
| 2026-04-27 19:21 | 43.22320 | 6.33439 | 24146 ft | 401 kts | 89° |
| 2026-04-27 19:21 | 43.22269 | 6.37240 | 24416 ft | 396 kts | 89° |
| 2026-04-27 19:22 | 43.22221 | 6.40965 | 24641 ft | 392 kts | 89° |
| 2026-04-27 19:22 | 43.22170 | 6.44689 | 24807 ft | 390 kts | 89° |
| 2026-04-27 19:22 | 43.22118 | 6.48381 | 25271 ft | 379 kts | 89° |
| 2026-04-27 19:22 | 43.22067 | 6.51759 | 26491 ft | 347 kts | 89° |
| 2026-04-27 19:23 | 43.22018 | 6.54840 | 27881 ft | 308 kts | 88° |
| 2026-04-27 19:23 | 43.21977 | 6.57621 | 28768 ft | 284 kts | 88° |
| 2026-04-27 19:23 | 43.21922 | 6.60220 | 29460 ft | 265 kts | 92° |
| 2026-04-27 19:23 | 43.21676 | 6.62614 | 30167 ft | 243 kts | 95° |
| 2026-04-27 19:24 | 43.21419 | 6.64775 | 30813 ft | 222 kts | 94° |
| 2026-04-27 19:24 | 43.21140 | 6.66814 | 31237 ft | 220 kts | 99° |
| 2026-04-27 19:24 | 43.20788 | 6.69091 | 30509 ft | 267 kts | 94° |
| 2026-04-27 19:24 | 43.20578 | 6.71581 | 31077 ft | 259 kts | 92° |
| 2026-04-27 19:25 | 43.20357 | 6.74016 | 31454 ft | 262 kts | 94° |
| 2026-04-27 19:25 | 43.20095 | 6.76496 | 31857 ft | 263 kts | 95° |
| 2026-04-27 19:25 | 43.19826 | 6.78957 | 32249 ft | 263 kts | 95° |
| 2026-04-27 19:25 | 43.19551 | 6.81418 | 32643 ft | 263 kts | 95° |
| 2026-04-27 19:26 | 43.19272 | 6.83888 | 33034 ft | 263 kts | 95° |
| 2026-04-27 19:26 | 43.18991 | 6.86357 | 33425 ft | 262 kts | 95° |
| 2026-04-27 19:26 | 43.18713 | 6.88792 | 33814 ft | 260 kts | 95° |
| 2026-04-27 19:26 | 43.18434 | 6.91238 | 34204 ft | 258 kts | 95° |
| 2026-04-27 19:27 | 43.18158 | 6.93654 | 34480 ft | 261 kts | 95° |
| 2026-04-27 19:27 | 43.17875 | 6.96130 | 34706 ft | 264 kts | 95° |
| 2026-04-27 19:27 | 43.17588 | 6.98623 | 34927 ft | 267 kts | 95° |
| 2026-04-27 19:27 | 43.17301 | 7.01132 | 35143 ft | 270 kts | 95° |
| 2026-04-27 19:28 | 43.17010 | 7.03658 | 35357 ft | 273 kts | 95° |
| 2026-04-27 19:28 | 43.16707 | 7.06266 | 35576 ft | 275 kts | 95° |
| 2026-04-27 19:28 | 43.16409 | 7.08845 | 35791 ft | 278 kts | 95° |
| 2026-04-27 19:28 | 43.16105 | 7.11456 | 36012 ft | 280 kts | 95° |
| 2026-04-27 19:29 | 43.15800 | 7.14077 | 36227 ft | 282 kts | 95° |
| 2026-04-27 19:29 | 43.15489 | 7.16735 | 36441 ft | 284 kts | 95° |
| 2026-04-27 19:29 | 43.15175 | 7.19428 | 36711 ft | 286 kts | 96° |
| 2026-04-27 19:29 | 43.14861 | 7.22109 | 36990 ft | 288 kts | 96° |
| 2026-04-27 19:30 | 43.14543 | 7.24815 | 37100 ft | 296 kts | 96° |
| 2026-04-27 19:30 | 43.13868 | 7.30558 | 37122 ft | 317 kts | 96° |
| 2026-04-27 19:30 | 43.13514 | 7.33565 | 37123 ft | 328 kts | 96° |
| 2026-04-27 19:31 | 43.13139 | 7.36729 | 37123 ft | 340 kts | 96° |
| 2026-04-27 19:31 | 43.12756 | 7.39936 | 37119 ft | 351 kts | 96° |
| 2026-04-27 19:31 | 43.12357 | 7.43291 | 37123 ft | 362 kts | 96° |
| 2026-04-27 19:31 | 43.11949 | 7.46705 | 37119 ft | 373 kts | 96° |
| 2026-04-27 19:32 | 43.11521 | 7.50274 | 37117 ft | 384 kts | 96° |
| 2026-04-27 19:32 | 43.10637 | 7.57637 | 37111 ft | 405 kts | 96° |
| 2026-04-27 19:33 | 43.09696 | 7.65414 | 37111 ft | 425 kts | 97° |
| 2026-04-27 19:33 | 43.08712 | 7.73508 | 37109 ft | 445 kts | 97° |
| 2026-04-27 19:34 | 43.07478 | 7.81968 | 37101 ft | 465 kts | 104° |
| 2026-04-27 19:34 | 43.05671 | 7.90564 | 37099 ft | 482 kts | 104° |
| 2026-04-27 19:35 | 43.03801 | 7.99524 | 37099 ft | 498 kts | 104° |
| 2026-04-27 19:35 | 43.01886 | 8.08686 | 37094 ft | 513 kts | 104° |
| 2026-04-27 19:36 | 42.99893 | 8.18170 | 37094 ft | 519 kts | 104° |
| 2026-04-27 19:36 | 42.97899 | 8.27600 | 37087 ft | 520 kts | 104° |
| 2026-04-27 19:37 | 42.95897 | 8.37039 | 37095 ft | 520 kts | 104° |
| 2026-04-27 19:37 | 42.93888 | 8.46462 | 37093 ft | 520 kts | 104° |
| 2026-04-27 19:38 | 42.91860 | 8.55933 | 37086 ft | 520 kts | 104° |
| 2026-04-27 19:38 | 42.89834 | 8.65358 | 37091 ft | 520 kts | 105° |
| 2026-04-27 19:38 | 42.88454 | 8.69945 | 37079 ft | 522 kts | 117° |
| 2026-04-27 19:39 | 42.86733 | 8.74251 | 37056 ft | 523 kts | 116° |
| 2026-04-27 19:39 | 42.83865 | 8.81483 | 37068 ft | 523 kts | 117° |
| 2026-04-27 19:40 | 42.80403 | 8.90182 | 37094 ft | 523 kts | 117° |
| 2026-04-27 19:40 | 42.76382 | 9.00258 | 37087 ft | 523 kts | 117° |
| 2026-04-27 19:41 | 42.72897 | 9.08958 | 37090 ft | 524 kts | 117° |
| 2026-04-27 19:41 | 42.69533 | 9.17667 | 37093 ft | 523 kts | 121° |
| 2026-04-27 19:42 | 42.65974 | 9.26189 | 37107 ft | 523 kts | 117° |
| 2026-04-27 19:42 | 42.62469 | 9.34861 | 37089 ft | 524 kts | 117° |
| 2026-04-27 19:43 | 42.58973 | 9.43493 | 37094 ft | 523 kts | 117° |
| 2026-04-27 19:43 | 42.56049 | 9.52429 | 37138 ft | 520 kts | 107° |
| 2026-04-27 19:44 | 42.53624 | 9.61631 | 37084 ft | 522 kts | 108° |
| 2026-04-27 19:44 | 42.51187 | 9.70834 | 37097 ft | 521 kts | 108° |
| 2026-04-27 19:45 | 42.49293 | 9.80241 | 37132 ft | 518 kts | 99° |
| 2026-04-27 19:45 | 42.47649 | 9.89694 | 37074 ft | 521 kts | 107° |
| 2026-04-27 19:46 | 42.45385 | 9.99005 | 37102 ft | 521 kts | 107° |
| 2026-04-27 19:46 | 42.43145 | 10.08334 | 37091 ft | 522 kts | 106° |
| 2026-04-27 19:47 | 42.41285 | 10.16054 | 37088 ft | 522 kts | 107° |
| 2026-04-27 19:47 | 42.38665 | 10.26884 | 37087 ft | 522 kts | 107° |
| 2026-04-27 19:48 | 42.36409 | 10.36171 | 37090 ft | 522 kts | 107° |
| 2026-04-27 19:48 | 42.34143 | 10.45460 | 37096 ft | 522 kts | 107° |
| 2026-04-27 19:49 | 42.31870 | 10.54744 | 37093 ft | 523 kts | 107° |
| 2026-04-27 19:49 | 42.29586 | 10.64035 | 37086 ft | 523 kts | 107° |
| 2026-04-27 19:50 | 42.27304 | 10.73274 | 37092 ft | 523 kts | 107° |
| 2026-04-27 19:50 | 42.25000 | 10.82572 | 37101 ft | 523 kts | 107° |
| 2026-04-27 19:51 | 42.22690 | 10.91855 | 37097 ft | 523 kts | 107° |
| 2026-04-27 19:51 | 42.20376 | 11.01116 | 37091 ft | 523 kts | 107° |
| 2026-04-27 19:52 | 42.18059 | 11.10360 | 37099 ft | 523 kts | 107° |
| 2026-04-27 19:52 | 42.15738 | 11.19573 | 37095 ft | 524 kts | 107° |
| 2026-04-27 19:53 | 42.12224 | 11.33456 | 37092 ft | 524 kts | 107° |
| 2026-04-27 19:53 | 42.09863 | 11.42747 | 37097 ft | 523 kts | 107° |
| 2026-04-27 19:54 | 42.07514 | 11.51945 | 37100 ft | 523 kts | 107° |
| 2026-04-27 19:54 | 42.05142 | 11.61208 | 37090 ft | 524 kts | 107° |
| 2026-04-27 19:55 | 42.02783 | 11.70375 | 37096 ft | 524 kts | 108° |
| 2026-04-27 19:55 | 42.00397 | 11.79612 | 37095 ft | 525 kts | 108° |
| 2026-04-27 19:56 | 41.97996 | 11.88873 | 37095 ft | 524 kts | 108° |
| 2026-04-27 19:56 | 41.95601 | 11.98076 | 37101 ft | 524 kts | 108° |
| 2026-04-27 19:57 | 41.94409 | 12.02644 | 37094 ft | 524 kts | 108° |
| 2026-04-27 19:57 | 41.91192 | 12.14931 | 37101 ft | 524 kts | 108° |
| 2026-04-27 19:58 | 41.86062 | 12.34388 | 37103 ft | 524 kts | 108° |